createdAt,value
2023-03-12T00:08:36.579Z,11.30
2023-03-12T00:18:41.461Z,11.60
2023-03-12T00:28:44.793Z,10.40
2023-03-12T00:38:48.173Z,10.90
2023-03-12T00:48:51.933Z,9.00
2023-03-12T00:58:55.669Z,8.30
2023-03-12T01:08:58.933Z,8.80
2023-03-12T01:19:03.930Z,8.40
2023-03-12T01:29:07.182Z,7.20
2023-03-12T01:39:10.349Z,7.30
2023-03-12T01:49:34.542Z,8.10
2023-03-12T01:59:52.219Z,7.90
2023-03-12T02:09:55.632Z,7.50
2023-03-12T02:20:11.250Z,7.20
2023-03-12T02:30:17.249Z,6.50
2023-03-12T02:40:46.132Z,7.40
2023-03-12T02:50:49.676Z,8.00
2023-03-12T03:00:53.121Z,7.90
2023-03-12T03:10:56.848Z,8.20
2023-03-12T03:21:05.154Z,8.90
2023-03-12T03:31:10.011Z,7.80
2023-03-12T03:41:14.221Z,6.80
2023-03-12T03:51:18.995Z,8.60
2023-03-12T04:01:23.886Z,8.20
2023-03-12T04:11:28.648Z,7.30
2023-03-12T04:21:33.659Z,8.30
2023-03-12T04:31:37.033Z,6.90
2023-03-12T04:41:40.656Z,5.70
2023-03-12T04:51:46.946Z,6.70
2023-03-12T05:01:52.011Z,7.80
2023-03-12T05:11:59.396Z,7.70
2023-03-12T05:22:03.433Z,8.10
2023-03-12T05:32:09.034Z,10.30
2023-03-12T05:42:15.940Z,9.20
2023-03-12T05:52:19.991Z,10.60
2023-03-12T06:02:24.439Z,8.90
2023-03-12T06:12:29.302Z,8.80
2023-03-12T06:22:32.663Z,9.20
2023-03-12T06:32:36.661Z,7.70
2023-03-12T06:42:40.434Z,7.40
2023-03-12T06:52:43.624Z,8.60
2023-03-12T07:02:46.741Z,6.00
2023-03-12T07:12:51.162Z,4.80
2023-03-12T07:22:54.324Z,4.00
2023-03-12T07:32:57.686Z,5.60
2023-03-12T07:43:01.771Z,3.50
2023-03-12T08:03:13.663Z,4.10
2023-03-12T08:13:18.633Z,3.60
2023-03-12T08:23:22.754Z,2.90
2023-03-12T08:33:26.398Z,4.40
2023-03-12T08:43:30.178Z,2.70
2023-03-12T08:53:36.209Z,2.50
2023-03-12T09:03:41.329Z,2.40
2023-03-12T09:14:14.975Z,1.90
2023-03-12T09:24:09.857Z,2.30
2023-03-12T09:34:13.226Z,2.60
2023-03-12T09:44:40.056Z,1.70
2023-03-12T09:55:05.572Z,1.70
2023-03-12T10:05:33.426Z,1.80
2023-03-12T10:16:03.295Z,2.00
2023-03-12T10:26:26.665Z,1.50
2023-03-12T10:36:34.938Z,2.10
2023-03-12T10:46:41.471Z,2.00
2023-03-12T10:56:50.920Z,1.90
2023-03-12T11:07:07.740Z,2.00
2023-03-12T11:17:24.750Z,2.40
2023-03-12T11:27:44.156Z,2.10
2023-03-12T11:38:15.766Z,2.30
2023-03-12T11:48:30.094Z,1.90
2023-03-12T11:58:57.791Z,2.00
2023-03-12T12:09:38.159Z,2.10
2023-03-12T12:20:14.811Z,2.10
2023-03-12T12:30:48.050Z,2.00
2023-03-12T12:40:55.811Z,2.00
2023-03-12T12:51:02.340Z,2.30
2023-03-12T13:01:06.700Z,1.60
2023-03-12T13:11:24.416Z,1.80
2023-03-12T13:21:30.541Z,2.20
2023-03-12T13:31:35.467Z,1.80
2023-03-12T13:41:41.161Z,1.70
2023-03-12T13:51:52.595Z,1.70
2023-03-12T14:02:02.151Z,2.00
2023-03-12T14:12:19.594Z,2.10
2023-03-12T14:22:24.682Z,3.70
2023-03-12T14:32:31.606Z,3.60
2023-03-12T14:42:36.710Z,4.00
2023-03-12T14:52:39.859Z,2.80
2023-03-12T15:02:44.321Z,4.50
2023-03-12T15:12:49.511Z,2.70
2023-03-12T15:22:53.766Z,2.00
2023-03-12T15:33:17.020Z,1.90
2023-03-12T15:43:24.209Z,2.00
2023-03-12T15:53:33.672Z,2.20
2023-03-12T16:03:37.950Z,2.30
2023-03-12T16:13:45.442Z,2.50
2023-03-12T16:23:48.579Z,2.60
2023-03-12T16:33:51.917Z,3.10
2023-03-12T16:43:55.673Z,2.50
2023-03-12T16:54:09.559Z,3.00
2023-03-12T17:04:14.417Z,3.00
2023-03-12T17:14:22.344Z,3.90
2023-03-12T17:24:29.368Z,5.90
2023-03-12T17:34:32.621Z,7.20
2023-03-12T17:44:37.036Z,6.00
2023-03-12T17:54:41.316Z,8.30
2023-03-12T18:04:44.494Z,6.80
2023-03-12T18:14:48.707Z,9.90
2023-03-12T18:24:51.909Z,21.00
2023-03-12T18:34:56.199Z,18.00
2023-03-12T18:45:01.039Z,8.60
2023-03-12T18:55:05.587Z,12.20
2023-03-12T19:05:11.161Z,19.90
2023-03-12T19:15:14.355Z,16.30
2023-03-12T19:25:20.615Z,16.60
2023-03-12T19:35:24.152Z,19.90
2023-03-12T19:45:27.661Z,26.30
2023-03-12T19:55:32.431Z,21.20
2023-03-12T20:05:35.583Z,18.70
2023-03-12T20:15:40.392Z,19.60
2023-03-12T20:25:43.938Z,22.40
2023-03-12T20:35:50.176Z,19.00
2023-03-12T20:45:53.793Z,15.00
2023-03-12T20:56:01.184Z,13.80
2023-03-12T21:06:08.162Z,10.40
2023-03-12T21:16:12.345Z,9.40
2023-03-12T21:26:15.551Z,6.50
2023-03-12T21:36:18.682Z,4.10
2023-03-12T21:46:24.978Z,3.50
2023-03-12T21:56:30.456Z,3.40
2023-03-12T22:06:34.018Z,3.40
2023-03-12T22:16:37.223Z,3.00
2023-03-12T22:26:40.425Z,3.10
2023-03-12T22:36:44.546Z,4.20
2023-03-12T22:46:47.772Z,3.40
2023-03-12T22:56:50.898Z,3.50
2023-03-12T23:07:01.538Z,3.50
2023-03-12T23:17:11.054Z,3.30
2023-03-12T23:27:14.109Z,3.90
2023-03-12T23:37:17.188Z,4.00
2023-03-12T23:47:20.272Z,3.90
2023-03-12T23:57:23.380Z,4.00
